sensor_id;sensor_type;location;lat;lon;timestamp;P1;durP1;ratioP1;P2;durP2;ratioP2
39016;SDS011;24784;45.582;5.276;2023-03-04T00:00:21;84.38;;;42.22;;
39016;SDS011;24784;45.582;5.276;2023-03-04T00:02:47;95.47;;;44.30;;
39016;SDS011;24784;45.582;5.276;2023-03-04T00:05:13;93.03;;;44.50;;
39016;SDS011;24784;45.582;5.276;2023-03-04T00:07:39;86.38;;;44.08;;
39016;SDS011;24784;45.582;5.276;2023-03-04T00:10:04;91.15;;;44.42;;
39016;SDS011;24784;45.582;5.276;2023-03-04T00:12:31;89.35;;;43.15;;
39016;SDS011;24784;45.582;5.276;2023-03-04T00:14:56;91.10;;;43.72;;
39016;SDS011;24784;45.582;5.276;2023-03-04T00:17:22;87.95;;;41.88;;
39016;SDS011;24784;45.582;5.276;2023-03-04T00:19:48;96.10;;;43.88;;
39016;SDS011;24784;45.582;5.276;2023-03-04T00:22:14;90.35;;;42.38;;
39016;SDS011;24784;45.582;5.276;2023-03-04T00:24:40;88.38;;;42.13;;
39016;SDS011;24784;45.582;5.276;2023-03-04T00:27:05;96.38;;;43.85;;
39016;SDS011;24784;45.582;5.276;2023-03-04T00:29:31;93.28;;;44.78;;
39016;SDS011;24784;45.582;5.276;2023-03-04T00:31:57;88.00;;;43.33;;
39016;SDS011;24784;45.582;5.276;2023-03-04T00:34:22;99.32;;;45.08;;
39016;SDS011;24784;45.582;5.276;2023-03-04T00:36:48;87.38;;;43.33;;
39016;SDS011;24784;45.582;5.276;2023-03-04T00:39:14;82.68;;;41.40;;
39016;SDS011;24784;45.582;5.276;2023-03-04T00:41:40;87.03;;;43.10;;
39016;SDS011;24784;45.582;5.276;2023-03-04T00:44:06;93.72;;;43.50;;
39016;SDS011;24784;45.582;5.276;2023-03-04T00:46:32;83.30;;;40.40;;
39016;SDS011;24784;45.582;5.276;2023-03-04T00:48:58;91.93;;;43.13;;
39016;SDS011;24784;45.582;5.276;2023-03-04T00:51:24;85.47;;;42.13;;
39016;SDS011;24784;45.582;5.276;2023-03-04T00:53:49;86.72;;;43.67;;
39016;SDS011;24784;45.582;5.276;2023-03-04T00:56:16;85.05;;;43.03;;
39016;SDS011;24784;45.582;5.276;2023-03-04T00:58:42;87.18;;;42.50;;
39016;SDS011;24784;45.582;5.276;2023-03-04T01:01:08;93.80;;;42.70;;
39016;SDS011;24784;45.582;5.276;2023-03-04T01:03:34;92.30;;;42.78;;
39016;SDS011;24784;45.582;5.276;2023-03-04T01:06:00;93.80;;;43.20;;
39016;SDS011;24784;45.582;5.276;2023-03-04T01:08:26;84.03;;;42.72;;
39016;SDS011;24784;45.582;5.276;2023-03-04T01:10:52;86.07;;;43.50;;
39016;SDS011;24784;45.582;5.276;2023-03-04T01:13:18;88.55;;;42.38;;
39016;SDS011;24784;45.582;5.276;2023-03-04T01:15:43;82.88;;;42.58;;
39016;SDS011;24784;45.582;5.276;2023-03-04T01:18:09;93.28;;;44.05;;
39016;SDS011;24784;45.582;5.276;2023-03-04T01:20:35;93.10;;;44.13;;
39016;SDS011;24784;45.582;5.276;2023-03-04T01:23:01;94.22;;;42.80;;
39016;SDS011;24784;45.582;5.276;2023-03-04T01:25:27;86.55;;;42.67;;
39016;SDS011;24784;45.582;5.276;2023-03-04T01:27:52;86.22;;;42.55;;
39016;SDS011;24784;45.582;5.276;2023-03-04T01:30:18;87.35;;;43.58;;
39016;SDS011;24784;45.582;5.276;2023-03-04T01:32:44;89.32;;;44.85;;
39016;SDS011;24784;45.582;5.276;2023-03-04T01:35:10;95.35;;;44.30;;
39016;SDS011;24784;45.582;5.276;2023-03-04T01:37:36;93.65;;;43.53;;
39016;SDS011;24784;45.582;5.276;2023-03-04T01:40:02;88.80;;;42.95;;
39016;SDS011;24784;45.582;5.276;2023-03-04T01:42:31;86.45;;;43.08;;
39016;SDS011;24784;45.582;5.276;2023-03-04T01:44:58;93.28;;;43.80;;
39016;SDS011;24784;45.582;5.276;2023-03-04T01:47:26;93.28;;;43.72;;
39016;SDS011;24784;45.582;5.276;2023-03-04T01:49:54;96.07;;;45.40;;
39016;SDS011;24784;45.582;5.276;2023-03-04T01:52:21;87.90;;;42.55;;
39016;SDS011;24784;45.582;5.276;2023-03-04T01:54:48;90.93;;;42.25;;
39016;SDS011;24784;45.582;5.276;2023-03-04T01:57:15;92.38;;;43.40;;
39016;SDS011;24784;45.582;5.276;2023-03-04T01:59:42;84.88;;;43.15;;
39016;SDS011;24784;45.582;5.276;2023-03-04T02:02:09;91.82;;;45.88;;
39016;SDS011;24784;45.582;5.276;2023-03-04T02:04:35;90.45;;;43.10;;
39016;SDS011;24784;45.582;5.276;2023-03-04T02:07:01;93.45;;;44.00;;
39016;SDS011;24784;45.582;5.276;2023-03-04T02:09:28;93.60;;;42.17;;
39016;SDS011;24784;45.582;5.276;2023-03-04T02:11:55;91.22;;;43.47;;
39016;SDS011;24784;45.582;5.276;2023-03-04T02:14:21;87.95;;;43.65;;
39016;SDS011;24784;45.582;5.276;2023-03-04T02:16:48;88.18;;;42.88;;
39016;SDS011;24784;45.582;5.276;2023-03-04T02:21:46;93.85;;;43.95;;
39016;SDS011;24784;45.582;5.276;2023-03-04T02:24:32;90.32;;;43.20;;
39016;SDS011;24784;45.582;5.276;2023-03-04T02:27:04;92.15;;;43.88;;
39016;SDS011;24784;45.582;5.276;2023-03-04T02:29:30;91.70;;;42.35;;
39016;SDS011;24784;45.582;5.276;2023-03-04T02:31:56;90.80;;;44.00;;
39016;SDS011;24784;45.582;5.276;2023-03-04T02:34:23;91.22;;;44.90;;
39016;SDS011;24784;45.582;5.276;2023-03-04T02:36:54;94.85;;;46.35;;
39016;SDS011;24784;45.582;5.276;2023-03-04T02:41:52;97.40;;;45.70;;
39016;SDS011;24784;45.582;5.276;2023-03-04T02:44:23;88.82;;;44.92;;
39016;SDS011;24784;45.582;5.276;2023-03-04T02:46:51;102.25;;;44.20;;
39016;SDS011;24784;45.582;5.276;2023-03-04T02:49:17;93.80;;;44.35;;
39016;SDS011;24784;45.582;5.276;2023-03-04T02:51:44;94.93;;;44.92;;
39016;SDS011;24784;45.582;5.276;2023-03-04T02:54:17;87.38;;;44.97;;
39016;SDS011;24784;45.582;5.276;2023-03-04T02:56:48;86.35;;;42.78;;
39016;SDS011;24784;45.582;5.276;2023-03-04T02:59:18;91.60;;;44.45;;
39016;SDS011;24784;45.582;5.276;2023-03-04T03:01:45;90.63;;;43.15;;
39016;SDS011;24784;45.582;5.276;2023-03-04T03:04:11;98.03;;;45.40;;
39016;SDS011;24784;45.582;5.276;2023-03-04T03:06:37;93.95;;;44.67;;
39016;SDS011;24784;45.582;5.276;2023-03-04T03:09:03;97.72;;;45.13;;
39016;SDS011;24784;45.582;5.276;2023-03-04T03:11:30;94.80;;;45.10;;
39016;SDS011;24784;45.582;5.276;2023-03-04T03:13:56;90.47;;;43.72;;
39016;SDS011;24784;45.582;5.276;2023-03-04T03:16:22;87.20;;;42.50;;
39016;SDS011;24784;45.582;5.276;2023-03-04T03:18:47;99.90;;;45.38;;
39016;SDS011;24784;45.582;5.276;2023-03-04T03:21:13;89.00;;;43.22;;
39016;SDS011;24784;45.582;5.276;2023-03-04T03:23:39;95.82;;;45.75;;
39016;SDS011;24784;45.582;5.276;2023-03-04T03:26:05;86.68;;;43.20;;
39016;SDS011;24784;45.582;5.276;2023-03-04T03:28:30;87.88;;;42.78;;
39016;SDS011;24784;45.582;5.276;2023-03-04T03:30:56;90.20;;;44.88;;
39016;SDS011;24784;45.582;5.276;2023-03-04T03:33:22;91.47;;;44.65;;
39016;SDS011;24784;45.582;5.276;2023-03-04T03:35:48;93.63;;;43.63;;
39016;SDS011;24784;45.582;5.276;2023-03-04T03:38:14;95.28;;;44.53;;
39016;SDS011;24784;45.582;5.276;2023-03-04T03:40:40;90.30;;;43.60;;
39016;SDS011;24784;45.582;5.276;2023-03-04T03:43:06;90.57;;;43.20;;
39016;SDS011;24784;45.582;5.276;2023-03-04T03:45:31;86.95;;;43.63;;
39016;SDS011;24784;45.582;5.276;2023-03-04T03:47:57;98.78;;;46.10;;
39016;SDS011;24784;45.582;5.276;2023-03-04T03:50:23;87.63;;;42.88;;
39016;SDS011;24784;45.582;5.276;2023-03-04T03:52:49;94.40;;;44.22;;
39016;SDS011;24784;45.582;5.276;2023-03-04T03:55:14;93.10;;;44.45;;
39016;SDS011;24784;45.582;5.276;2023-03-04T03:57:40;92.45;;;43.58;;
39016;SDS011;24784;45.582;5.276;2023-03-04T04:00:07;97.28;;;45.63;;
39016;SDS011;24784;45.582;5.276;2023-03-04T04:02:33;96.07;;;46.58;;
39016;SDS011;24784;45.582;5.276;2023-03-04T04:04:59;95.28;;;44.22;;
39016;SDS011;24784;45.582;5.276;2023-03-04T04:07:25;93.28;;;44.78;;
39016;SDS011;24784;45.582;5.276;2023-03-04T04:09:51;98.47;;;45.38;;
39016;SDS011;24784;45.582;5.276;2023-03-04T04:12:17;92.30;;;45.55;;
39016;SDS011;24784;45.582;5.276;2023-03-04T04:14:44;91.68;;;43.60;;
39016;SDS011;24784;45.582;5.276;2023-03-04T04:17:10;95.75;;;44.28;;
39016;SDS011;24784;45.582;5.276;2023-03-04T04:19:36;93.18;;;43.88;;
39016;SDS011;24784;45.582;5.276;2023-03-04T04:22:02;93.20;;;44.58;;
39016;SDS011;24784;45.582;5.276;2023-03-04T04:24:28;95.13;;;45.28;;
39016;SDS011;24784;45.582;5.276;2023-03-04T04:26:54;91.20;;;44.53;;
39016;SDS011;24784;45.582;5.276;2023-03-04T04:29:20;92.50;;;44.33;;
39016;SDS011;24784;45.582;5.276;2023-03-04T04:31:47;93.68;;;45.33;;
39016;SDS011;24784;45.582;5.276;2023-03-04T04:34:13;96.15;;;45.13;;
39016;SDS011;24784;45.582;5.276;2023-03-04T04:36:38;94.13;;;45.58;;
39016;SDS011;24784;45.582;5.276;2023-03-04T04:39:04;88.57;;;43.30;;
39016;SDS011;24784;45.582;5.276;2023-03-04T04:41:31;94.28;;;42.72;;
39016;SDS011;24784;45.582;5.276;2023-03-04T04:44:01;95.82;;;46.33;;
39016;SDS011;24784;45.582;5.276;2023-03-04T04:46:27;96.22;;;44.83;;
39016;SDS011;24784;45.582;5.276;2023-03-04T04:48:53;94.43;;;45.50;;
39016;SDS011;24784;45.582;5.276;2023-03-04T04:51:19;95.45;;;44.80;;
39016;SDS011;24784;45.582;5.276;2023-03-04T04:53:46;108.45;;;46.42;;
39016;SDS011;24784;45.582;5.276;2023-03-04T04:56:14;94.43;;;46.47;;
39016;SDS011;24784;45.582;5.276;2023-03-04T04:58:43;95.93;;;44.78;;
39016;SDS011;24784;45.582;5.276;2023-03-04T05:01:09;94.60;;;43.67;;
39016;SDS011;24784;45.582;5.276;2023-03-04T05:03:36;97.05;;;46.38;;
39016;SDS011;24784;45.582;5.276;2023-03-04T05:06:02;93.82;;;44.47;;
39016;SDS011;24784;45.582;5.276;2023-03-04T05:08:29;96.30;;;46.13;;
39016;SDS011;24784;45.582;5.276;2023-03-04T05:10:55;98.53;;;45.30;;
39016;SDS011;24784;45.582;5.276;2023-03-04T05:13:21;91.85;;;44.35;;
39016;SDS011;24784;45.582;5.276;2023-03-04T05:15:50;93.63;;;44.05;;
39016;SDS011;24784;45.582;5.276;2023-03-04T05:18:17;94.65;;;45.78;;
39016;SDS011;24784;45.582;5.276;2023-03-04T05:20:44;97.88;;;45.05;;
39016;SDS011;24784;45.582;5.276;2023-03-04T05:23:13;101.90;;;47.33;;
39016;SDS011;24784;45.582;5.276;2023-03-04T05:25:39;94.43;;;45.60;;
39016;SDS011;24784;45.582;5.276;2023-03-04T05:28:05;99.15;;;45.28;;
39016;SDS011;24784;45.582;5.276;2023-03-04T05:30:36;100.68;;;45.55;;
39016;SDS011;24784;45.582;5.276;2023-03-04T05:33:05;93.28;;;45.13;;
39016;SDS011;24784;45.582;5.276;2023-03-04T05:35:33;91.47;;;44.10;;
39016;SDS011;24784;45.582;5.276;2023-03-04T05:38:03;94.32;;;45.63;;
39016;SDS011;24784;45.582;5.276;2023-03-04T05:40:30;89.15;;;45.13;;
39016;SDS011;24784;45.582;5.276;2023-03-04T05:42:56;97.75;;;46.20;;
39016;SDS011;24784;45.582;5.276;2023-03-04T05:45:22;103.38;;;46.90;;
39016;SDS011;24784;45.582;5.276;2023-03-04T05:47:48;96.68;;;44.95;;
39016;SDS011;24784;45.582;5.276;2023-03-04T05:50:14;95.80;;;44.83;;
39016;SDS011;24784;45.582;5.276;2023-03-04T05:52:40;93.55;;;44.80;;
39016;SDS011;24784;45.582;5.276;2023-03-04T05:55:06;98.88;;;45.45;;
39016;SDS011;24784;45.582;5.276;2023-03-04T05:57:32;92.25;;;46.28;;
39016;SDS011;24784;45.582;5.276;2023-03-04T05:59:58;104.72;;;47.08;;
39016;SDS011;24784;45.582;5.276;2023-03-04T06:02:23;95.50;;;45.78;;
39016;SDS011;24784;45.582;5.276;2023-03-04T06:04:49;96.93;;;46.35;;
39016;SDS011;24784;45.582;5.276;2023-03-04T06:07:15;92.72;;;44.25;;
39016;SDS011;24784;45.582;5.276;2023-03-04T06:09:41;95.65;;;44.85;;
39016;SDS011;24784;45.582;5.276;2023-03-04T06:12:09;93.07;;;45.45;;
39016;SDS011;24784;45.582;5.276;2023-03-04T06:14:35;97.60;;;46.50;;
39016;SDS011;24784;45.582;5.276;2023-03-04T06:17:01;96.57;;;46.03;;
39016;SDS011;24784;45.582;5.276;2023-03-04T06:19:27;98.82;;;45.38;;
39016;SDS011;24784;45.582;5.276;2023-03-04T06:21:52;94.43;;;46.22;;
39016;SDS011;24784;45.582;5.276;2023-03-04T06:24:18;102.55;;;48.72;;
39016;SDS011;24784;45.582;5.276;2023-03-04T06:26:44;113.35;;;51.88;;
39016;SDS011;24784;45.582;5.276;2023-03-04T06:29:10;105.18;;;50.28;;
39016;SDS011;24784;45.582;5.276;2023-03-04T06:31:36;108.15;;;49.97;;
39016;SDS011;24784;45.582;5.276;2023-03-04T06:34:01;116.72;;;53.00;;
39016;SDS011;24784;45.582;5.276;2023-03-04T06:36:27;113.28;;;53.70;;
39016;SDS011;24784;45.582;5.276;2023-03-04T06:38:53;111.53;;;52.72;;
39016;SDS011;24784;45.582;5.276;2023-03-04T06:41:19;117.03;;;52.47;;
39016;SDS011;24784;45.582;5.276;2023-03-04T06:43:45;118.57;;;54.90;;
39016;SDS011;24784;45.582;5.276;2023-03-04T06:46:10;116.57;;;53.22;;
39016;SDS011;24784;45.582;5.276;2023-03-04T06:48:36;113.70;;;54.20;;
39016;SDS011;24784;45.582;5.276;2023-03-04T06:51:06;118.93;;;54.88;;
39016;SDS011;24784;45.582;5.276;2023-03-04T06:53:35;115.80;;;53.83;;
39016;SDS011;24784;45.582;5.276;2023-03-04T06:56:01;112.47;;;53.47;;
39016;SDS011;24784;45.582;5.276;2023-03-04T06:58:27;122.90;;;55.60;;
39016;SDS011;24784;45.582;5.276;2023-03-04T07:00:53;113.22;;;55.03;;
39016;SDS011;24784;45.582;5.276;2023-03-04T07:03:19;106.75;;;53.92;;
39016;SDS011;24784;45.582;5.276;2023-03-04T07:05:45;116.68;;;54.47;;
39016;SDS011;24784;45.582;5.276;2023-03-04T07:08:11;117.35;;;55.83;;
39016;SDS011;24784;45.582;5.276;2023-03-04T07:10:36;106.40;;;52.00;;
39016;SDS011;24784;45.582;5.276;2023-03-04T07:13:02;112.25;;;53.92;;
39016;SDS011;24784;45.582;5.276;2023-03-04T07:15:28;115.07;;;53.20;;
39016;SDS011;24784;45.582;5.276;2023-03-04T07:17:54;120.88;;;54.28;;
39016;SDS011;24784;45.582;5.276;2023-03-04T07:20:20;117.80;;;55.95;;
39016;SDS011;24784;45.582;5.276;2023-03-04T07:22:46;118.18;;;56.05;;
39016;SDS011;24784;45.582;5.276;2023-03-04T07:25:12;117.95;;;55.25;;
39016;SDS011;24784;45.582;5.276;2023-03-04T07:27:37;118.35;;;54.03;;
39016;SDS011;24784;45.582;5.276;2023-03-04T07:30:05;122.85;;;56.05;;
39016;SDS011;24784;45.582;5.276;2023-03-04T07:32:31;116.55;;;53.20;;
39016;SDS011;24784;45.582;5.276;2023-03-04T07:35:01;104.78;;;52.53;;
39016;SDS011;24784;45.582;5.276;2023-03-04T07:37:27;111.82;;;52.95;;
39016;SDS011;24784;45.582;5.276;2023-03-04T07:39:53;112.05;;;54.83;;
39016;SDS011;24784;45.582;5.276;2023-03-04T07:42:19;122.45;;;56.03;;
39016;SDS011;24784;45.582;5.276;2023-03-04T07:44:45;113.15;;;53.55;;
39016;SDS011;24784;45.582;5.276;2023-03-04T07:47:10;116.32;;;55.45;;
39016;SDS011;24784;45.582;5.276;2023-03-04T07:49:36;119.57;;;56.72;;
39016;SDS011;24784;45.582;5.276;2023-03-04T07:52:02;121.93;;;56.53;;
39016;SDS011;24784;45.582;5.276;2023-03-04T07:54:29;112.57;;;52.42;;
39016;SDS011;24784;45.582;5.276;2023-03-04T07:56:55;112.45;;;53.75;;
39016;SDS011;24784;45.582;5.276;2023-03-04T07:59:20;115.30;;;55.08;;
39016;SDS011;24784;45.582;5.276;2023-03-04T08:01:46;105.13;;;53.17;;
39016;SDS011;24784;45.582;5.276;2023-03-04T08:04:12;108.28;;;53.70;;
39016;SDS011;24784;45.582;5.276;2023-03-04T08:06:39;109.50;;;52.58;;
39016;SDS011;24784;45.582;5.276;2023-03-04T08:09:06;107.25;;;50.72;;
39016;SDS011;24784;45.582;5.276;2023-03-04T08:11:35;114.07;;;53.08;;
39016;SDS011;24784;45.582;5.276;2023-03-04T08:14:01;113.72;;;53.30;;
39016;SDS011;24784;45.582;5.276;2023-03-04T08:16:28;109.70;;;53.15;;
39016;SDS011;24784;45.582;5.276;2023-03-04T08:18:54;118.88;;;55.80;;
39016;SDS011;24784;45.582;5.276;2023-03-04T08:21:22;115.88;;;54.60;;
39016;SDS011;24784;45.582;5.276;2023-03-04T08:23:49;116.53;;;53.70;;
39016;SDS011;24784;45.582;5.276;2023-03-04T08:26:17;118.65;;;55.75;;
39016;SDS011;24784;45.582;5.276;2023-03-04T08:28:46;113.65;;;54.50;;
39016;SDS011;24784;45.582;5.276;2023-03-04T08:31:12;121.53;;;56.05;;
39016;SDS011;24784;45.582;5.276;2023-03-04T08:33:39;109.60;;;52.13;;
39016;SDS011;24784;45.582;5.276;2023-03-04T08:36:05;114.18;;;55.15;;
39016;SDS011;24784;45.582;5.276;2023-03-04T08:38:32;111.68;;;53.60;;
39016;SDS011;24784;45.582;5.276;2023-03-04T08:41:00;97.70;;;50.17;;
39016;SDS011;24784;45.582;5.276;2023-03-04T08:43:29;100.38;;;50.90;;
39016;SDS011;24784;45.582;5.276;2023-03-04T08:45:55;99.78;;;50.50;;
39016;SDS011;24784;45.582;5.276;2023-03-04T08:48:21;103.15;;;49.65;;
39016;SDS011;24784;45.582;5.276;2023-03-04T08:50:47;101.15;;;48.65;;
39016;SDS011;24784;45.582;5.276;2023-03-04T08:53:14;96.80;;;49.65;;
39016;SDS011;24784;45.582;5.276;2023-03-04T08:55:41;105.28;;;49.88;;
39016;SDS011;24784;45.582;5.276;2023-03-04T08:58:08;101.78;;;49.40;;
39016;SDS011;24784;45.582;5.276;2023-03-04T09:00:35;101.47;;;50.67;;
39016;SDS011;24784;45.582;5.276;2023-03-04T09:03:02;97.60;;;48.10;;
39016;SDS011;24784;45.582;5.276;2023-03-04T09:05:29;97.55;;;48.78;;
39016;SDS011;24784;45.582;5.276;2023-03-04T09:07:55;98.97;;;49.97;;
39016;SDS011;24784;45.582;5.276;2023-03-04T09:10:22;105.22;;;51.33;;
39016;SDS011;24784;45.582;5.276;2023-03-04T09:12:48;91.35;;;48.22;;
39016;SDS011;24784;45.582;5.276;2023-03-04T09:15:13;110.80;;;49.13;;
39016;SDS011;24784;45.582;5.276;2023-03-04T09:17:39;95.90;;;48.60;;
39016;SDS011;24784;45.582;5.276;2023-03-04T09:20:06;102.93;;;48.45;;
39016;SDS011;24784;45.582;5.276;2023-03-04T09:22:34;96.05;;;48.28;;
39016;SDS011;24784;45.582;5.276;2023-03-04T09:25:00;92.78;;;47.83;;
39016;SDS011;24784;45.582;5.276;2023-03-04T09:27:26;93.50;;;47.00;;
39016;SDS011;24784;45.582;5.276;2023-03-04T09:29:52;93.68;;;45.65;;
39016;SDS011;24784;45.582;5.276;2023-03-04T09:32:18;101.38;;;47.63;;
39016;SDS011;24784;45.582;5.276;2023-03-04T09:34:43;92.63;;;47.78;;
39016;SDS011;24784;45.582;5.276;2023-03-04T09:37:09;93.03;;;45.55;;
39016;SDS011;24784;45.582;5.276;2023-03-04T09:39:35;92.65;;;47.28;;
39016;SDS011;24784;45.582;5.276;2023-03-04T09:42:01;88.72;;;45.72;;
39016;SDS011;24784;45.582;5.276;2023-03-04T09:47:10;91.05;;;47.08;;
39016;SDS011;24784;45.582;5.276;2023-03-04T09:49:38;96.05;;;48.10;;
39016;SDS011;24784;45.582;5.276;2023-03-04T09:52:13;89.47;;;46.40;;
39016;SDS011;24784;45.582;5.276;2023-03-04T09:57:53;91.00;;;45.72;;
39016;SDS011;24784;45.582;5.276;2023-03-04T10:00:25;85.97;;;45.50;;
39016;SDS011;24784;45.582;5.276;2023-03-04T10:05:27;90.45;;;46.85;;
39016;SDS011;24784;45.582;5.276;2023-03-04T10:07:56;98.53;;;47.58;;
39016;SDS011;24784;45.582;5.276;2023-03-04T10:10:25;94.57;;;48.13;;
39016;SDS011;24784;45.582;5.276;2023-03-04T10:12:57;98.20;;;47.10;;
39016;SDS011;24784;45.582;5.276;2023-03-04T10:15:38;96.72;;;47.13;;
39016;SDS011;24784;45.582;5.276;2023-03-04T10:18:20;90.47;;;46.55;;
39016;SDS011;24784;45.582;5.276;2023-03-04T10:23:24;80.93;;;44.83;;
39016;SDS011;24784;45.582;5.276;2023-03-04T10:25:51;91.43;;;46.55;;
39016;SDS011;24784;45.582;5.276;2023-03-04T10:28:30;83.57;;;44.72;;
39016;SDS011;24784;45.582;5.276;2023-03-04T10:31:05;82.97;;;45.60;;
39016;SDS011;24784;45.582;5.276;2023-03-04T10:33:53;84.63;;;45.03;;
39016;SDS011;24784;45.582;5.276;2023-03-04T10:38:55;90.38;;;45.40;;
39016;SDS011;24784;45.582;5.276;2023-03-04T10:41:52;87.53;;;43.72;;
39016;SDS011;24784;45.582;5.276;2023-03-04T10:44:21;84.05;;;44.25;;
39016;SDS011;24784;45.582;5.276;2023-03-04T10:46:48;88.82;;;45.85;;
39016;SDS011;24784;45.582;5.276;2023-03-04T10:49:15;79.80;;;46.05;;
39016;SDS011;24784;45.582;5.276;2023-03-04T10:52:02;90.93;;;47.95;;
39016;SDS011;24784;45.582;5.276;2023-03-04T10:54:54;87.05;;;45.53;;
39016;SDS011;24784;45.582;5.276;2023-03-04T10:57:24;85.45;;;45.55;;
39016;SDS011;24784;45.582;5.276;2023-03-04T10:59:58;86.40;;;45.70;;
39016;SDS011;24784;45.582;5.276;2023-03-04T11:04:55;89.13;;;46.42;;
39016;SDS011;24784;45.582;5.276;2023-03-04T11:07:22;88.55;;;44.88;;
39016;SDS011;24784;45.582;5.276;2023-03-04T11:09:50;93.03;;;47.55;;
39016;SDS011;24784;45.582;5.276;2023-03-04T11:12:18;84.72;;;46.40;;
39016;SDS011;24784;45.582;5.276;2023-03-04T11:14:49;92.35;;;47.58;;
39016;SDS011;24784;45.582;5.276;2023-03-04T11:19:44;89.20;;;46.53;;
39016;SDS011;24784;45.582;5.276;2023-03-04T11:22:16;87.60;;;45.83;;
39016;SDS011;24784;45.582;5.276;2023-03-04T11:24:46;97.53;;;48.55;;
39016;SDS011;24784;45.582;5.276;2023-03-04T11:27:43;86.55;;;47.00;;
39016;SDS011;24784;45.582;5.276;2023-03-04T11:30:15;89.30;;;46.95;;
39016;SDS011;24784;45.582;5.276;2023-03-04T11:33:04;86.50;;;44.38;;
39016;SDS011;24784;45.582;5.276;2023-03-04T11:38:19;82.95;;;44.30;;
39016;SDS011;24784;45.582;5.276;2023-03-04T11:43:24;84.20;;;47.35;;
39016;SDS011;24784;45.582;5.276;2023-03-04T11:49:06;88.22;;;45.38;;
39016;SDS011;24784;45.582;5.276;2023-03-04T11:51:56;90.07;;;45.67;;
39016;SDS011;24784;45.582;5.276;2023-03-04T11:57:46;84.85;;;45.47;;
39016;SDS011;24784;45.582;5.276;2023-03-04T12:03:41;93.22;;;45.53;;
39016;SDS011;24784;45.582;5.276;2023-03-04T12:09:02;87.85;;;46.47;;
39016;SDS011;24784;45.582;5.276;2023-03-04T12:11:45;89.35;;;46.88;;
39016;SDS011;24784;45.582;5.276;2023-03-04T12:17:10;81.60;;;45.00;;
39016;SDS011;24784;45.582;5.276;2023-03-04T12:47:48;85.20;;;41.67;;
39016;SDS011;24784;45.582;5.276;2023-03-04T12:53:29;82.18;;;42.25;;
39016;SDS011;24784;45.582;5.276;2023-03-04T12:56:03;80.38;;;41.60;;
39016;SDS011;24784;45.582;5.276;2023-03-04T12:58:30;78.32;;;41.53;;
39016;SDS011;24784;45.582;5.276;2023-03-04T13:01:15;75.28;;;42.50;;
39016;SDS011;24784;45.582;5.276;2023-03-04T13:16:43;76.47;;;40.25;;
39016;SDS011;24784;45.582;5.276;2023-03-04T13:41:14;87.80;;;42.58;;
39016;SDS011;24784;45.582;5.276;2023-03-04T13:56:42;73.88;;;41.53;;
39016;SDS011;24784;45.582;5.276;2023-03-04T14:01:58;81.70;;;39.92;;
39016;SDS011;24784;45.582;5.276;2023-03-04T14:04:43;71.15;;;41.42;;
39016;SDS011;24784;45.582;5.276;2023-03-04T14:09:57;75.18;;;41.08;;
39016;SDS011;24784;45.582;5.276;2023-03-04T14:12:32;76.93;;;40.78;;
39016;SDS011;24784;45.582;5.276;2023-03-04T14:15:02;72.30;;;39.15;;
39016;SDS011;24784;45.582;5.276;2023-03-04T14:17:31;83.28;;;43.40;;
39016;SDS011;24784;45.582;5.276;2023-03-04T14:20:00;76.22;;;40.90;;
39016;SDS011;24784;45.582;5.276;2023-03-04T14:22:36;79.40;;;44.00;;
39016;SDS011;24784;45.582;5.276;2023-03-04T14:27:31;78.15;;;40.63;;
39016;SDS011;24784;45.582;5.276;2023-03-04T14:30:00;76.93;;;39.75;;
39016;SDS011;24784;45.582;5.276;2023-03-04T14:32:32;79.95;;;42.85;;
39016;SDS011;24784;45.582;5.276;2023-03-04T14:35:01;71.75;;;40.28;;
39016;SDS011;24784;45.582;5.276;2023-03-04T14:40:25;73.15;;;40.13;;
39016;SDS011;24784;45.582;5.276;2023-03-04T14:42:55;83.28;;;43.13;;
39016;SDS011;24784;45.582;5.276;2023-03-04T14:45:25;75.93;;;39.95;;
39016;SDS011;24784;45.582;5.276;2023-03-04T14:47:52;74.20;;;41.13;;
39016;SDS011;24784;45.582;5.276;2023-03-04T14:50:20;81.72;;;40.30;;
39016;SDS011;24784;45.582;5.276;2023-03-04T14:52:47;71.88;;;40.72;;
39016;SDS011;24784;45.582;5.276;2023-03-04T14:55:18;79.50;;;40.42;;
39016;SDS011;24784;45.582;5.276;2023-03-04T14:57:46;72.35;;;39.58;;
39016;SDS011;24784;45.582;5.276;2023-03-04T15:02:53;73.63;;;37.33;;
39016;SDS011;24784;45.582;5.276;2023-03-04T15:05:26;72.70;;;36.88;;
39016;SDS011;24784;45.582;5.276;2023-03-04T15:08:02;69.10;;;38.42;;
39016;SDS011;24784;45.582;5.276;2023-03-04T15:10:31;73.22;;;37.47;;
39016;SDS011;24784;45.582;5.276;2023-03-04T15:13:02;68.82;;;37.22;;
39016;SDS011;24784;45.582;5.276;2023-03-04T15:17:56;70.13;;;37.70;;
39016;SDS011;24784;45.582;5.276;2023-03-04T15:20:26;73.18;;;39.08;;
39016;SDS011;24784;45.582;5.276;2023-03-04T15:23:02;75.25;;;40.00;;
39016;SDS011;24784;45.582;5.276;2023-03-04T15:25:31;72.82;;;37.50;;
39016;SDS011;24784;45.582;5.276;2023-03-04T15:27:57;67.95;;;37.38;;
39016;SDS011;24784;45.582;5.276;2023-03-04T15:30:24;72.32;;;37.75;;
39016;SDS011;24784;45.582;5.276;2023-03-04T15:32:53;76.03;;;39.25;;
39016;SDS011;24784;45.582;5.276;2023-03-04T15:35:20;65.47;;;37.25;;
39016;SDS011;24784;45.582;5.276;2023-03-04T15:37:47;67.47;;;36.92;;
39016;SDS011;24784;45.582;5.276;2023-03-04T15:40:27;72.65;;;37.53;;
39016;SDS011;24784;45.582;5.276;2023-03-04T15:42:54;65.53;;;35.88;;
39016;SDS011;24784;45.582;5.276;2023-03-04T15:45:23;68.00;;;35.08;;
39016;SDS011;24784;45.582;5.276;2023-03-04T15:48:01;69.28;;;34.78;;
39016;SDS011;24784;45.582;5.276;2023-03-04T15:50:31;68.78;;;34.72;;
39016;SDS011;24784;45.582;5.276;2023-03-04T15:53:00;64.57;;;33.92;;
39016;SDS011;24784;45.582;5.276;2023-03-04T15:55:28;65.60;;;34.58;;
39016;SDS011;24784;45.582;5.276;2023-03-04T15:57:56;65.03;;;33.65;;
39016;SDS011;24784;45.582;5.276;2023-03-04T16:00:24;61.80;;;33.05;;
39016;SDS011;24784;45.582;5.276;2023-03-04T16:02:50;59.45;;;32.75;;
39016;SDS011;24784;45.582;5.276;2023-03-04T16:05:16;57.58;;;31.48;;
39016;SDS011;24784;45.582;5.276;2023-03-04T16:07:46;62.45;;;32.08;;
39016;SDS011;24784;45.582;5.276;2023-03-04T16:13:14;56.85;;;31.25;;
39016;SDS011;24784;45.582;5.276;2023-03-04T16:15:42;60.53;;;31.27;;
39016;SDS011;24784;45.582;5.276;2023-03-04T16:18:08;57.78;;;30.98;;
39016;SDS011;24784;45.582;5.276;2023-03-04T16:20:37;56.58;;;30.67;;
39016;SDS011;24784;45.582;5.276;2023-03-04T16:23:04;53.50;;;30.23;;
39016;SDS011;24784;45.582;5.276;2023-03-04T16:25:33;56.92;;;29.17;;
39016;SDS011;24784;45.582;5.276;2023-03-04T16:27:59;50.50;;;28.17;;
39016;SDS011;24784;45.582;5.276;2023-03-04T16:30:28;51.63;;;29.40;;
39016;SDS011;24784;45.582;5.276;2023-03-04T16:32:57;51.60;;;27.50;;
39016;SDS011;24784;45.582;5.276;2023-03-04T16:35:23;54.63;;;28.95;;
39016;SDS011;24784;45.582;5.276;2023-03-04T16:37:53;53.25;;;28.98;;
39016;SDS011;24784;45.582;5.276;2023-03-04T16:40:21;54.13;;;29.95;;
39016;SDS011;24784;45.582;5.276;2023-03-04T16:42:49;53.90;;;28.05;;
39016;SDS011;24784;45.582;5.276;2023-03-04T16:45:16;54.45;;;28.00;;